sensor_id;sensor_type;location;lat;lon;timestamp;pressure;altitude;pressure_sealevel;temperature;humidity
72798;BME280;61084;55.816;37.036;2023-12-07T00:00:32;101327.38;;;-5.42;62.33
72798;BME280;61084;55.816;37.036;2023-12-07T00:02:58;101325.75;;;-5.40;62.24
72798;BME280;61084;55.816;37.036;2023-12-07T00:05:25;101328.38;;;-5.38;62.27
72798;BME280;61084;55.816;37.036;2023-12-07T00:07:51;101337.72;;;-5.39;62.39
72798;BME280;61084;55.816;37.036;2023-12-07T00:10:17;101328.31;;;-5.40;62.32
72798;BME280;61084;55.816;37.036;2023-12-07T00:12:43;101322.38;;;-5.39;62.38
72798;BME280;61084;55.816;37.036;2023-12-07T00:15:09;101323.13;;;-5.41;62.27
72798;BME280;61084;55.816;37.036;2023-12-07T00:17:35;101328.22;;;-5.41;62.23
72798;BME280;61084;55.816;37.036;2023-12-07T00:20:01;101324.88;;;-5.40;62.16
72798;BME280;61084;55.816;37.036;2023-12-07T00:22:30;101322.44;;;-5.37;62.33
72798;BME280;61084;55.816;37.036;2023-12-07T00:24:56;101321.50;;;-5.39;62.27
72798;BME280;61084;55.816;37.036;2023-12-07T00:27:22;101332.56;;;-5.40;62.20
72798;BME280;61084;55.816;37.036;2023-12-07T00:29:48;101330.03;;;-5.39;62.34
72798;BME280;61084;55.816;37.036;2023-12-07T00:32:14;101330.03;;;-5.39;62.22
72798;BME280;61084;55.816;37.036;2023-12-07T00:34:40;101328.38;;;-5.38;62.33
72798;BME280;61084;55.816;37.036;2023-12-07T00:37:05;101330.09;;;-5.37;62.40
72798;BME280;61084;55.816;37.036;2023-12-07T00:39:32;101335.34;;;-5.34;62.65
72798;BME280;61084;55.816;37.036;2023-12-07T00:41:58;101330.19;;;-5.36;62.47
72798;BME280;61084;55.816;37.036;2023-12-07T00:44:24;101334.38;;;-5.38;62.33
72798;BME280;61084;55.816;37.036;2023-12-07T00:46:50;101335.22;;;-5.37;62.45
72798;BME280;61084;55.816;37.036;2023-12-07T00:49:16;101336.84;;;-5.39;62.30
72798;BME280;61084;55.816;37.036;2023-12-07T00:51:42;101338.53;;;-5.40;62.44
72798;BME280;61084;55.816;37.036;2023-12-07T00:54:08;101343.56;;;-5.41;62.37
72798;BME280;61084;55.816;37.036;2023-12-07T00:56:34;101346.13;;;-5.41;62.42
72798;BME280;61084;55.816;37.036;2023-12-07T00:59:01;101340.28;;;-5.39;62.55
72798;BME280;61084;55.816;37.036;2023-12-07T01:01:27;101350.50;;;-5.39;62.32
72798;BME280;61084;55.816;37.036;2023-12-07T01:03:53;101339.41;;;-5.39;62.40
72798;BME280;61084;55.816;37.036;2023-12-07T01:06:20;101345.34;;;-5.40;62.42
72798;BME280;61084;55.816;37.036;2023-12-07T01:08:46;101345.41;;;-5.39;62.32
72798;BME280;61084;55.816;37.036;2023-12-07T01:11:12;101346.22;;;-5.40;62.50
72798;BME280;61084;55.816;37.036;2023-12-07T01:13:37;101340.22;;;-5.40;62.14
72798;BME280;61084;55.816;37.036;2023-12-07T01:16:03;101346.22;;;-5.40;62.37
72798;BME280;61084;55.816;37.036;2023-12-07T01:18:29;101342.88;;;-5.37;62.34
72798;BME280;61084;55.816;37.036;2023-12-07T01:20:55;101355.78;;;-5.36;62.35
72798;BME280;61084;55.816;37.036;2023-12-07T01:23:21;101340.81;;;-5.46;62.38
72798;BME280;61084;55.816;37.036;2023-12-07T01:25:47;101355.69;;;-5.37;62.42
72798;BME280;61084;55.816;37.036;2023-12-07T01:28:13;101360.00;;;-5.36;62.46
72798;BME280;61084;55.816;37.036;2023-12-07T01:30:38;101366.78;;;-5.37;62.38
72798;BME280;61084;55.816;37.036;2023-12-07T01:33:04;101363.31;;;-5.39;62.35
72798;BME280;61084;55.816;37.036;2023-12-07T01:35:30;101370.00;;;-5.42;62.22
72798;BME280;61084;55.816;37.036;2023-12-07T01:37:56;101367.22;;;-5.47;62.10
72798;BME280;61084;55.816;37.036;2023-12-07T01:40:22;101368.03;;;-5.48;62.32
72798;BME280;61084;55.816;37.036;2023-12-07T01:42:52;101376.72;;;-5.44;62.44
72798;BME280;61084;55.816;37.036;2023-12-07T01:45:19;101378.44;;;-5.43;62.52
72798;BME280;61084;55.816;37.036;2023-12-07T01:47:46;101369.06;;;-5.44;62.39
72798;BME280;61084;55.816;37.036;2023-12-07T01:50:13;101373.34;;;-5.43;62.32
72798;BME280;61084;55.816;37.036;2023-12-07T01:52:47;101380.28;;;-5.41;62.60
72798;BME280;61084;55.816;37.036;2023-12-07T01:55:15;101372.59;;;-5.41;62.42
72798;BME280;61084;55.816;37.036;2023-12-07T01:57:43;101366.59;;;-5.41;62.55
72798;BME280;61084;55.816;37.036;2023-12-07T02:00:11;101370.91;;;-5.40;62.29
72798;BME280;61084;55.816;37.036;2023-12-07T02:02:38;101367.53;;;-5.39;61.89
72798;BME280;61084;55.816;37.036;2023-12-07T02:05:05;101372.66;;;-5.39;62.41
72798;BME280;61084;55.816;37.036;2023-12-07T02:07:33;101381.25;;;-5.37;62.31
72798;BME280;61084;55.816;37.036;2023-12-07T02:09:59;101383.78;;;-5.39;62.60
72798;BME280;61084;55.816;37.036;2023-12-07T02:12:26;101383.72;;;-5.40;62.30
72798;BME280;61084;55.816;37.036;2023-12-07T02:14:56;101390.56;;;-5.39;62.21
72798;BME280;61084;55.816;37.036;2023-12-07T02:17:33;101395.56;;;-5.42;62.28
72798;BME280;61084;55.816;37.036;2023-12-07T02:20:11;101391.13;;;-5.46;62.16
72798;BME280;61084;55.816;37.036;2023-12-07T02:22:39;101391.78;;;-5.50;61.95
72798;BME280;61084;55.816;37.036;2023-12-07T02:25:09;101395.03;;;-5.54;62.09
72798;BME280;61084;55.816;37.036;2023-12-07T02:27:42;101395.75;;;-5.57;61.90
72798;BME280;61084;55.816;37.036;2023-12-07T02:30:10;101393.09;;;-5.60;62.13
72798;BME280;61084;55.816;37.036;2023-12-07T02:32:37;101395.66;;;-5.60;61.90
72798;BME280;61084;55.816;37.036;2023-12-07T02:35:05;101397.25;;;-5.62;61.84
72798;BME280;61084;55.816;37.036;2023-12-07T02:37:33;101402.22;;;-5.65;61.81
72798;BME280;61084;55.816;37.036;2023-12-07T02:40:00;101399.63;;;-5.66;61.89
72798;BME280;61084;55.816;37.036;2023-12-07T02:42:26;101403.78;;;-5.68;61.64
72798;BME280;61084;55.816;37.036;2023-12-07T02:44:53;101402.03;;;-5.69;61.55
72798;BME280;61084;55.816;37.036;2023-12-07T02:47:19;101406.22;;;-5.71;61.84
72798;BME280;61084;55.816;37.036;2023-12-07T02:49:45;101399.16;;;-5.77;61.72
72798;BME280;61084;55.816;37.036;2023-12-07T02:52:11;101407.56;;;-5.79;61.37
72798;BME280;61084;55.816;37.036;2023-12-07T02:54:36;101413.56;;;-5.79;61.76
72798;BME280;61084;55.816;37.036;2023-12-07T02:57:02;101406.63;;;-5.81;61.66
72798;BME280;61084;55.816;37.036;2023-12-07T02:59:28;101411.78;;;-5.80;61.81
72798;BME280;61084;55.816;37.036;2023-12-07T03:01:55;101419.59;;;-5.77;61.83
72798;BME280;61084;55.816;37.036;2023-12-07T03:04:21;101418.03;;;-5.73;62.09
72798;BME280;61084;55.816;37.036;2023-12-07T03:06:46;101419.00;;;-5.71;61.88
72798;BME280;61084;55.816;37.036;2023-12-07T03:09:12;101423.38;;;-5.69;62.16
72798;BME280;61084;55.816;37.036;2023-12-07T03:11:38;101427.75;;;-5.66;62.42
72798;BME280;61084;55.816;37.036;2023-12-07T03:14:04;101425.25;;;-5.65;62.32
72798;BME280;61084;55.816;37.036;2023-12-07T03:16:30;101436.50;;;-5.61;62.49
72798;BME280;61084;55.816;37.036;2023-12-07T03:18:56;101436.50;;;-5.61;62.34
72798;BME280;61084;55.816;37.036;2023-12-07T03:21:22;101435.63;;;-5.62;62.46
72798;BME280;61084;55.816;37.036;2023-12-07T03:23:47;101447.69;;;-5.59;62.61
72798;BME280;61084;55.816;37.036;2023-12-07T03:26:15;101444.28;;;-5.58;62.49
72798;BME280;61084;55.816;37.036;2023-12-07T03:28:41;101452.84;;;-5.58;62.46
72798;BME280;61084;55.816;37.036;2023-12-07T03:31:07;101446.13;;;-5.56;62.52
72798;BME280;61084;55.816;37.036;2023-12-07T03:33:33;101453.13;;;-5.52;62.66
72798;BME280;61084;55.816;37.036;2023-12-07T03:35:59;101452.22;;;-5.52;62.76
72798;BME280;61084;55.816;37.036;2023-12-07T03:38:25;101458.16;;;-5.53;62.73
72798;BME280;61084;55.816;37.036;2023-12-07T03:40:50;101453.84;;;-5.54;63.01
72798;BME280;61084;55.816;37.036;2023-12-07T03:43:19;101459.06;;;-5.53;62.91
72798;BME280;61084;55.816;37.036;2023-12-07T03:45:45;101452.16;;;-5.54;62.85
72798;BME280;61084;55.816;37.036;2023-12-07T03:48:11;101457.97;;;-5.58;62.81
72798;BME280;61084;55.816;37.036;2023-12-07T03:50:37;101456.13;;;-5.60;62.81
72798;BME280;61084;55.816;37.036;2023-12-07T03:53:03;101457.97;;;-5.58;62.63
72798;BME280;61084;55.816;37.036;2023-12-07T03:55:29;101459.53;;;-5.61;62.87
72798;BME280;61084;55.816;37.036;2023-12-07T03:57:55;101456.66;;;-5.67;62.86
72798;BME280;61084;55.816;37.036;2023-12-07T04:00:21;101463.34;;;-5.71;62.82
72798;BME280;61084;55.816;37.036;2023-12-07T04:02:47;101455.31;;;-5.78;62.72
72798;BME280;61084;55.816;37.036;2023-12-07T04:05:13;101452.16;;;-5.73;62.91
72798;BME280;61084;55.816;37.036;2023-12-07T04:07:39;101463.19;;;-5.74;63.15
72798;BME280;61084;55.816;37.036;2023-12-07T04:10:06;101467.56;;;-5.71;63.29
72798;BME280;61084;55.816;37.036;2023-12-07T04:12:32;101463.41;;;-5.69;63.10
72798;BME280;61084;55.816;37.036;2023-12-07T04:14:58;101465.16;;;-5.68;63.14
72798;BME280;61084;55.816;37.036;2023-12-07T04:17:24;101468.44;;;-5.71;63.24
72798;BME280;61084;55.816;37.036;2023-12-07T04:19:50;101473.56;;;-5.71;62.95
72798;BME280;61084;55.816;37.036;2023-12-07T04:22:16;101478.72;;;-5.69;63.08
72798;BME280;61084;55.816;37.036;2023-12-07T04:24:41;101471.28;;;-5.65;63.04
72798;BME280;61084;55.816;37.036;2023-12-07T04:27:07;101469.59;;;-5.64;62.92
72798;BME280;61084;55.816;37.036;2023-12-07T04:29:33;101472.16;;;-5.64;63.14
72798;BME280;61084;55.816;37.036;2023-12-07T04:31:59;101470.38;;;-5.65;63.14
72798;BME280;61084;55.816;37.036;2023-12-07T04:34:25;101469.25;;;-5.72;62.88
72798;BME280;61084;55.816;37.036;2023-12-07T04:36:51;101471.53;;;-5.78;63.26
72798;BME280;61084;55.816;37.036;2023-12-07T04:39:17;101471.53;;;-5.78;63.21
72798;BME280;61084;55.816;37.036;2023-12-07T04:41:43;101475.91;;;-5.75;63.16
72798;BME280;61084;55.816;37.036;2023-12-07T04:44:09;101473.41;;;-5.74;63.10
72798;BME280;61084;55.816;37.036;2023-12-07T04:46:35;101478.47;;;-5.75;63.19
72798;BME280;61084;55.816;37.036;2023-12-07T04:49:01;101480.81;;;-5.80;63.09
72798;BME280;61084;55.816;37.036;2023-12-07T04:51:27;101482.38;;;-5.83;63.18
72798;BME280;61084;55.816;37.036;2023-12-07T04:53:53;101481.47;;;-5.85;63.38
72798;BME280;61084;55.816;37.036;2023-12-07T04:56:19;101483.31;;;-5.81;63.38
72798;BME280;61084;55.816;37.036;2023-12-07T04:58:45;101482.91;;;-5.90;63.24
72798;BME280;61084;55.816;37.036;2023-12-07T05:01:10;101476.03;;;-5.91;63.41
72798;BME280;61084;55.816;37.036;2023-12-07T05:03:36;101487.16;;;-5.91;63.43
72798;BME280;61084;55.816;37.036;2023-12-07T05:06:02;101498.31;;;-5.89;63.45
72798;BME280;61084;55.816;37.036;2023-12-07T05:08:28;101500.97;;;-5.87;63.28
72798;BME280;61084;55.816;37.036;2023-12-07T05:10:54;101506.13;;;-5.86;63.42
72798;BME280;61084;55.816;37.036;2023-12-07T05:13:20;101501.03;;;-5.86;63.33
72798;BME280;61084;55.816;37.036;2023-12-07T05:15:46;101506.13;;;-5.86;63.30
72798;BME280;61084;55.816;37.036;2023-12-07T05:18:12;101507.75;;;-5.88;63.41
72798;BME280;61084;55.816;37.036;2023-12-07T05:20:38;101511.25;;;-5.86;63.39
72798;BME280;61084;55.816;37.036;2023-12-07T05:23:05;101517.97;;;-5.88;63.33
72798;BME280;61084;55.816;37.036;2023-12-07T05:25:31;101517.25;;;-5.85;63.25
72798;BME280;61084;55.816;37.036;2023-12-07T05:27:58;101519.81;;;-5.85;63.28
72798;BME280;61084;55.816;37.036;2023-12-07T05:30:24;101518.38;;;-5.79;63.19
72798;BME280;61084;55.816;37.036;2023-12-07T05:32:50;101522.88;;;-5.73;63.42
72798;BME280;61084;55.816;37.036;2023-12-07T05:35:16;101526.44;;;-5.70;63.35
72798;BME280;61084;55.816;37.036;2023-12-07T05:37:42;101535.00;;;-5.69;62.98
72798;BME280;61084;55.816;37.036;2023-12-07T05:40:08;101529.97;;;-5.68;63.11
72798;BME280;61084;55.816;37.036;2023-12-07T05:42:35;101531.69;;;-5.67;63.12
72798;BME280;61084;55.816;37.036;2023-12-07T05:45:01;101541.00;;;-5.69;63.06
72798;BME280;61084;55.816;37.036;2023-12-07T05:47:30;101535.88;;;-5.69;63.31
72798;BME280;61084;55.816;37.036;2023-12-07T05:49:56;101539.16;;;-5.71;63.06
72798;BME280;61084;55.816;37.036;2023-12-07T05:52:23;101539.81;;;-5.75;63.21
72798;BME280;61084;55.816;37.036;2023-12-07T05:54:49;101540.66;;;-5.76;62.98
72798;BME280;61084;55.816;37.036;2023-12-07T05:57:16;101546.63;;;-5.76;63.03
72798;BME280;61084;55.816;37.036;2023-12-07T05:59:42;101545.81;;;-5.75;63.04
72798;BME280;61084;55.816;37.036;2023-12-07T06:02:09;101545.66;;;-5.78;62.93
72798;BME280;61084;55.816;37.036;2023-12-07T06:04:34;101551.66;;;-5.77;62.90
72798;BME280;61084;55.816;37.036;2023-12-07T06:07:00;101550.88;;;-5.76;62.90
72798;BME280;61084;55.816;37.036;2023-12-07T06:09:26;101557.78;;;-5.74;62.87
72798;BME280;61084;55.816;37.036;2023-12-07T06:11:52;101555.84;;;-5.79;62.91
72798;BME280;61084;55.816;37.036;2023-12-07T06:14:18;101554.81;;;-5.83;62.98
72798;BME280;61084;55.816;37.036;2023-12-07T06:16:44;101552.88;;;-5.88;62.91
72798;BME280;61084;55.816;37.036;2023-12-07T06:19:10;101559.44;;;-5.93;62.79
72798;BME280;61084;55.816;37.036;2023-12-07T06:21:36;101557.09;;;-5.89;62.88
72798;BME280;61084;55.816;37.036;2023-12-07T06:24:02;101558.16;;;-5.85;63.06
72798;BME280;61084;55.816;37.036;2023-12-07T06:26:27;101558.34;;;-5.81;62.90
72798;BME280;61084;55.816;37.036;2023-12-07T06:28:53;101562.44;;;-5.84;62.68
72798;BME280;61084;55.816;37.036;2023-12-07T06:31:19;101556.38;;;-5.86;62.87
72798;BME280;61084;55.816;37.036;2023-12-07T06:33:47;101554.72;;;-5.86;62.72
72798;BME280;61084;55.816;37.036;2023-12-07T06:36:21;101558.00;;;-5.88;62.75
72798;BME280;61084;55.816;37.036;2023-12-07T06:38:47;101541.94;;;-5.86;62.59
72798;BME280;61084;55.816;37.036;2023-12-07T06:41:14;101548.66;;;-5.88;62.87
72798;BME280;61084;55.816;37.036;2023-12-07T06:43:40;101557.03;;;-5.90;62.90
72798;BME280;61084;55.816;37.036;2023-12-07T06:46:06;101558.66;;;-5.92;62.88
72798;BME280;61084;55.816;37.036;2023-12-07T06:48:32;101553.53;;;-5.92;62.76
72798;BME280;61084;55.816;37.036;2023-12-07T06:50:58;101556.25;;;-5.89;62.85
72798;BME280;61084;55.816;37.036;2023-12-07T06:53:24;101557.94;;;-5.90;62.70
72798;BME280;61084;55.816;37.036;2023-12-07T06:55:50;101559.44;;;-5.93;62.53
72798;BME280;61084;55.816;37.036;2023-12-07T06:58:16;101568.00;;;-5.93;62.82
72798;BME280;61084;55.816;37.036;2023-12-07T07:00:42;101568.16;;;-5.90;62.70
72798;BME280;61084;55.816;37.036;2023-12-07T07:03:07;101559.66;;;-5.89;62.54
72798;BME280;61084;55.816;37.036;2023-12-07T07:05:33;101559.59;;;-5.90;62.70
72798;BME280;61084;55.816;37.036;2023-12-07T07:07:59;101564.94;;;-5.86;62.43
72798;BME280;61084;55.816;37.036;2023-12-07T07:10:25;101566.47;;;-5.89;62.34
72798;BME280;61084;55.816;37.036;2023-12-07T07:12:51;101569.81;;;-5.90;62.49
72798;BME280;61084;55.816;37.036;2023-12-07T07:15:17;101562.81;;;-5.94;62.44
72798;BME280;61084;55.816;37.036;2023-12-07T07:17:44;101565.44;;;-5.93;62.37
72798;BME280;61084;55.816;37.036;2023-12-07T07:20:10;101566.31;;;-5.92;62.58
72798;BME280;61084;55.816;37.036;2023-12-07T07:22:36;101570.47;;;-5.94;62.24
72798;BME280;61084;55.816;37.036;2023-12-07T07:25:01;101571.50;;;-5.91;62.12
72798;BME280;61084;55.816;37.036;2023-12-07T07:27:29;101576.03;;;-5.85;62.27
72798;BME280;61084;55.816;37.036;2023-12-07T07:29:55;101572.84;;;-5.80;62.31
72798;BME280;61084;55.816;37.036;2023-12-07T07:32:21;101576.44;;;-5.76;62.28
72798;BME280;61084;55.816;37.036;2023-12-07T07:34:47;101578.91;;;-5.78;61.93
72798;BME280;61084;55.816;37.036;2023-12-07T07:37:13;101581.56;;;-5.76;62.18
72798;BME280;61084;55.816;37.036;2023-12-07T07:39:38;101581.56;;;-5.76;61.88
72798;BME280;61084;55.816;37.036;2023-12-07T07:42:04;101585.63;;;-5.80;61.99
72798;BME280;61084;55.816;37.036;2023-12-07T07:44:31;101583.00;;;-5.81;61.45
72798;BME280;61084;55.816;37.036;2023-12-07T07:46:57;101586.94;;;-5.89;61.82
72798;BME280;61084;55.816;37.036;2023-12-07T07:49:23;101592.88;;;-5.89;61.75
72798;BME280;61084;55.816;37.036;2023-12-07T07:51:49;101592.34;;;-5.82;61.72
72798;BME280;61084;55.816;37.036;2023-12-07T07:54:16;101587.19;;;-5.83;61.53
72798;BME280;61084;55.816;37.036;2023-12-07T07:56:43;101589.13;;;-5.78;61.74
72798;BME280;61084;55.816;37.036;2023-12-07T07:59:09;101593.59;;;-5.74;61.54
72798;BME280;61084;55.816;37.036;2023-12-07T08:01:36;101598.03;;;-5.70;61.58
72798;BME280;61084;55.816;37.036;2023-12-07T08:04:02;101593.00;;;-5.68;61.69
72798;BME280;61084;55.816;37.036;2023-12-07T08:06:28;101599.97;;;-5.66;61.62
72798;BME280;61084;55.816;37.036;2023-12-07T08:08:54;101598.41;;;-5.62;61.50
72798;BME280;61084;55.816;37.036;2023-12-07T08:11:20;101613.91;;;-5.59;61.39
72798;BME280;61084;55.816;37.036;2023-12-07T08:13:46;101602.84;;;-5.58;61.79
72798;BME280;61084;55.816;37.036;2023-12-07T08:16:11;101604.31;;;-5.63;61.41
72798;BME280;61084;55.816;37.036;2023-12-07T08:18:37;101604.47;;;-5.60;61.67
72798;BME280;61084;55.816;37.036;2023-12-07T08:21:04;101599.28;;;-5.62;61.52
72798;BME280;61084;55.816;37.036;2023-12-07T08:23:30;101596.56;;;-5.65;61.31
72798;BME280;61084;55.816;37.036;2023-12-07T08:25:55;101599.78;;;-5.69;60.95
72798;BME280;61084;55.816;37.036;2023-12-07T08:28:23;101599.00;;;-5.68;61.48
72798;BME280;61084;55.816;37.036;2023-12-07T08:30:48;101594.75;;;-5.67;61.53
72798;BME280;61084;55.816;37.036;2023-12-07T08:33:14;101603.53;;;-5.62;61.40
72798;BME280;61084;55.816;37.036;2023-12-07T08:35:40;101591.69;;;-5.60;61.28
72798;BME280;61084;55.816;37.036;2023-12-07T08:38:06;101596.78;;;-5.60;60.99
72798;BME280;61084;55.816;37.036;2023-12-07T08:40:32;101596.72;;;-5.62;61.32
72798;BME280;61084;55.816;37.036;2023-12-07T08:42:58;101591.53;;;-5.63;61.15
72798;BME280;61084;55.816;37.036;2023-12-07T08:45:24;101594.22;;;-5.60;61.16
72798;BME280;61084;55.816;37.036;2023-12-07T08:47:49;101593.50;;;-5.58;61.01
72798;BME280;61084;55.816;37.036;2023-12-07T08:50:15;101595.13;;;-5.60;60.96
72798;BME280;61084;55.816;37.036;2023-12-07T08:52:41;101596.84;;;-5.59;61.24
72798;BME280;61084;55.816;37.036;2023-12-07T08:55:07;101594.44;;;-5.56;61.38
72798;BME280;61084;55.816;37.036;2023-12-07T08:57:33;101592.91;;;-5.52;61.35
72798;BME280;61084;55.816;37.036;2023-12-07T08:59:59;101592.09;;;-5.51;61.29
72798;BME280;61084;55.816;37.036;2023-12-07T09:02:25;101591.97;;;-5.54;61.32
72798;BME280;61084;55.816;37.036;2023-12-07T09:04:51;101588.72;;;-5.50;61.14
72798;BME280;61084;55.816;37.036;2023-12-07T09:07:17;101594.00;;;-5.47;61.19
72798;BME280;61084;55.816;37.036;2023-12-07T09:09:44;101585.22;;;-5.52;61.17
72798;BME280;61084;55.816;37.036;2023-12-07T09:12:14;101588.59;;;-5.53;60.87
72798;BME280;61084;55.816;37.036;2023-12-07T09:14:40;101590.22;;;-5.55;61.25
72798;BME280;61084;55.816;37.036;2023-12-07T09:17:06;101586.50;;;-5.62;61.06
72798;BME280;61084;55.816;37.036;2023-12-07T09:19:32;101588.22;;;-5.61;60.92
72798;BME280;61084;55.816;37.036;2023-12-07T09:21:58;101591.75;;;-5.59;61.31
72798;BME280;61084;55.816;37.036;2023-12-07T09:24:24;101587.06;;;-5.67;61.22
72798;BME280;61084;55.816;37.036;2023-12-07T09:26:50;101584.41;;;-5.70;60.87
72798;BME280;61084;55.816;37.036;2023-12-07T09:29:16;101582.69;;;-5.70;60.58
72798;BME280;61084;55.816;37.036;2023-12-07T09:31:42;101585.19;;;-5.71;60.85
72798;BME280;61084;55.816;37.036;2023-12-07T09:34:08;101586.34;;;-5.65;60.71
72798;BME280;61084;55.816;37.036;2023-12-07T09:36:34;101583.94;;;-5.62;61.17
72798;BME280;61084;55.816;37.036;2023-12-07T09:39:00;101585.84;;;-5.58;60.93
72798;BME280;61084;55.816;37.036;2023-12-07T09:41:28;101587.50;;;-5.58;60.72
72798;BME280;61084;55.816;37.036;2023-12-07T09:43:54;101575.75;;;-5.55;60.47
72798;BME280;61084;55.816;37.036;2023-12-07T09:46:21;101583.50;;;-5.53;60.46
72798;BME280;61084;55.816;37.036;2023-12-07T09:48:49;101582.81;;;-5.49;60.46
72798;BME280;61084;55.816;37.036;2023-12-07T09:51:15;101583.03;;;-5.45;60.63
72798;BME280;61084;55.816;37.036;2023-12-07T09:53:42;101574.53;;;-5.44;60.62
72798;BME280;61084;55.816;37.036;2023-12-07T09:56:09;101566.81;;;-5.45;60.29
72798;BME280;61084;55.816;37.036;2023-12-07T09:58:36;101574.47;;;-5.45;60.45
72798;BME280;61084;55.816;37.036;2023-12-07T10:01:02;101582.97;;;-5.46;60.10
72798;BME280;61084;55.816;37.036;2023-12-07T10:03:28;101579.53;;;-5.47;59.87
72798;BME280;61084;55.816;37.036;2023-12-07T10:05:58;101583.91;;;-5.44;60.13
72798;BME280;61084;55.816;37.036;2023-12-07T10:08:33;101586.69;;;-5.40;60.07
72798;BME280;61084;55.816;37.036;2023-12-07T10:11:06;101589.16;;;-5.41;60.40
72798;BME280;61084;55.816;37.036;2023-12-07T10:13:33;101591.81;;;-5.40;60.47
72798;BME280;61084;55.816;37.036;2023-12-07T10:16:06;101591.81;;;-5.40;60.21
72798;BME280;61084;55.816;37.036;2023-12-07T10:18:32;101592.59;;;-5.41;60.48
72798;BME280;61084;55.816;37.036;2023-12-07T10:20:58;101595.09;;;-5.42;60.38
72798;BME280;61084;55.816;37.036;2023-12-07T10:23:24;101591.66;;;-5.43;60.06
72798;BME280;61084;55.816;37.036;2023-12-07T10:25:52;101594.16;;;-5.44;60.14
72798;BME280;61084;55.816;37.036;2023-12-07T10:28:17;101589.88;;;-5.44;60.26
72798;BME280;61084;55.816;37.036;2023-12-07T10:30:45;101596.72;;;-5.44;60.14
72798;BME280;61084;55.816;37.036;2023-12-07T10:33:11;101594.00;;;-5.47;60.34
72798;BME280;61084;55.816;37.036;2023-12-07T10:35:42;101596.72;;;-5.44;59.87
72798;BME280;61084;55.816;37.036;2023-12-07T10:38:09;101588.94;;;-5.46;60.05
72798;BME280;61084;55.816;37.036;2023-12-07T10:40:35;101593.22;;;-5.46;60.06
72798;BME280;61084;55.816;37.036;2023-12-07T10:43:05;101606.00;;;-5.46;60.00
72798;BME280;61084;55.816;37.036;2023-12-07T10:45:31;101596.63;;;-5.46;60.04
72798;BME280;61084;55.816;37.036;2023-12-07T10:48:03;101602.34;;;-5.51;59.44
72798;BME280;61084;55.816;37.036;2023-12-07T10:50:34;101607.25;;;-5.56;59.72
72798;BME280;61084;55.816;37.036;2023-12-07T10:53:07;101604.75;;;-5.54;59.84
72798;BME280;61084;55.816;37.036;2023-12-07T10:55:42;101604.00;;;-5.52;60.01
72798;BME280;61084;55.816;37.036;2023-12-07T10:58:11;101607.31;;;-5.54;59.94
72798;BME280;61084;55.816;37.036;2023-12-07T11:00:42;101601.75;;;-5.63;60.49
72798;BME280;61084;55.816;37.036;2023-12-07T11:03:16;101605.69;;;-5.70;60.06
72798;BME280;61084;55.816;37.036;2023-12-07T11:05:47;101605.63;;;-5.71;60.06
72798;BME280;61084;55.816;37.036;2023-12-07T11:11:34;101614.91;;;-5.73;60.18
72798;BME280;61084;55.816;37.036;2023-12-07T11:14:09;101599.50;;;-5.75;60.21
72798;BME280;61084;55.816;37.036;2023-12-07T11:16:42;101605.28;;;-5.79;60.05
72798;BME280;61084;55.816;37.036;2023-12-07T11:22:06;101605.91;;;-5.84;59.65
72798;BME280;61084;55.816;37.036;2023-12-07T11:24:33;101597.94;;;-5.90;59.69
72798;BME280;61084;55.816;37.036;2023-12-07T11:26:59;101605.59;;;-5.90;59.74
72798;BME280;61084;55.816;37.036;2023-12-07T11:29:26;101598.66;;;-5.93;59.65
72798;BME280;61084;55.816;37.036;2023-12-07T11:32:12;101595.16;;;-5.95;59.34
72798;BME280;61084;55.816;37.036;2023-12-07T11:34:39;101596.84;;;-5.95;59.37
72798;BME280;61084;55.816;37.036;2023-12-07T11:37:06;101605.31;;;-5.96;59.74
72798;BME280;61084;55.816;37.036;2023-12-07T11:39:36;101601.88;;;-5.97;59.59
72798;BME280;61084;55.816;37.036;2023-12-07T11:42:16;101602.47;;;-6.02;59.24
72798;BME280;61084;55.816;37.036;2023-12-07T11:44:43;101613.47;;;-6.03;59.45
72798;BME280;61084;55.816;37.036;2023-12-07T11:47:17;101619.25;;;-6.07;59.45
72798;BME280;61084;55.816;37.036;2023-12-07T11:49:44;101611.34;;;-6.12;59.30
72798;BME280;61084;55.816;37.036;2023-12-07T11:52:17;101618.97;;;-6.13;59.37
72798;BME280;61084;55.816;37.036;2023-12-07T11:54:45;101618.13;;;-6.13;59.08
72798;BME280;61084;55.816;37.036;2023-12-07T11:57:11;101610.97;;;-6.20;59.21
72798;BME280;61084;55.816;37.036;2023-12-07T11:59:37;101607.56;;;-6.20;59.32
72798;BME280;61084;55.816;37.036;2023-12-07T12:02:03;101619.47;;;-6.21;59.32
72798;BME280;61084;55.816;37.036;2023-12-07T12:04:29;101610.84;;;-6.23;59.42
72798;BME280;61084;55.816;37.036;2023-12-07T12:06:55;101609.00;;;-6.25;59.16
72798;BME280;61084;55.816;37.036;2023-12-07T12:09:24;101612.28;;;-6.28;59.16
72798;BME280;61084;55.816;37.036;2023-12-07T12:11:49;101612.16;;;-6.31;59.07
72798;BME280;61084;55.816;37.036;2023-12-07T12:14:16;101610.38;;;-6.32;59.43
72798;BME280;61084;55.816;37.036;2023-12-07T12:16:43;101610.22;;;-6.35;59.10
72798;BME280;61084;55.816;37.036;2023-12-07T12:19:10;101603.38;;;-6.36;59.57
72798;BME280;61084;55.816;37.036;2023-12-07T12:21:39;101610.31;;;-6.33;59.12
72798;BME280;61084;55.816;37.036;2023-12-07T12:24:05;101605.03;;;-6.36;59.39
72798;BME280;61084;55.816;37.036;2023-12-07T12:26:34;101611.81;;;-6.37;59.49
72798;BME280;61084;55.816;37.036;2023-12-07T12:29:01;101615.25;;;-6.36;59.49
72798;BME280;61084;55.816;37.036;2023-12-07T12:31:28;101611.69;;;-6.40;59.70
72798;BME280;61084;55.816;37.036;2023-12-07T12:33:54;101621.81;;;-6.41;59.62
72798;BME280;61084;55.816;37.036;2023-12-07T12:36:20;101618.28;;;-6.43;59.71
72798;BME280;61084;55.816;37.036;2023-12-07T12:38:52;101614.78;;;-6.45;59.81
72798;BME280;61084;55.816;37.036;2023-12-07T12:41:22;101623.03;;;-6.51;59.46
72798;BME280;61084;55.816;37.036;2023-12-07T12:43:49;101624.53;;;-6.54;59.12